sensor_id;sensor_type;location;lat;lon;timestamp;P1;durP1;ratioP1;P2;durP2;ratioP2
71715;SDS011;59568;52.128;5.434;2023-06-24T00:00:09;5.40;;;3.63;;
71715;SDS011;59568;52.128;5.434;2023-06-24T00:02:38;7.28;;;3.90;;
71715;SDS011;59568;52.128;5.434;2023-06-24T00:05:07;6.18;;;3.85;;
71715;SDS011;59568;52.128;5.434;2023-06-24T00:07:35;7.60;;;4.07;;
71715;SDS011;59568;52.128;5.434;2023-06-24T00:10:11;5.50;;;3.27;;
71715;SDS011;59568;52.128;5.434;2023-06-24T00:12:42;6.55;;;3.70;;
71715;SDS011;59568;52.128;5.434;2023-06-24T00:15:09;5.10;;;3.65;;
71715;SDS011;59568;52.128;5.434;2023-06-24T00:17:37;5.97;;;4.50;;
71715;SDS011;59568;52.128;5.434;2023-06-24T00:20:04;9.57;;;4.47;;
71715;SDS011;59568;52.128;5.434;2023-06-24T00:22:34;6.20;;;3.70;;
71715;SDS011;59568;52.128;5.434;2023-06-24T00:25:01;5.57;;;3.65;;
71715;SDS011;59568;52.128;5.434;2023-06-24T00:27:27;7.07;;;4.28;;
71715;SDS011;59568;52.128;5.434;2023-06-24T00:29:54;6.40;;;3.67;;
71715;SDS011;59568;52.128;5.434;2023-06-24T00:32:21;6.50;;;3.78;;
71715;SDS011;59568;52.128;5.434;2023-06-24T00:34:48;7.73;;;4.53;;
71715;SDS011;59568;52.128;5.434;2023-06-24T00:37:17;7.45;;;4.00;;
71715;SDS011;59568;52.128;5.434;2023-06-24T00:39:44;6.40;;;4.03;;
71715;SDS011;59568;52.128;5.434;2023-06-24T00:42:10;5.20;;;3.45;;
71715;SDS011;59568;52.128;5.434;2023-06-24T00:44:37;6.85;;;3.80;;
71715;SDS011;59568;52.128;5.434;2023-06-24T00:47:06;7.47;;;4.10;;
71715;SDS011;59568;52.128;5.434;2023-06-24T00:49:34;6.35;;;4.15;;
71715;SDS011;59568;52.128;5.434;2023-06-24T00:52:01;6.05;;;3.90;;
71715;SDS011;59568;52.128;5.434;2023-06-24T00:54:28;6.88;;;4.00;;
71715;SDS011;59568;52.128;5.434;2023-06-24T00:56:58;5.90;;;4.10;;
71715;SDS011;59568;52.128;5.434;2023-06-24T00:59:28;5.97;;;4.00;;
71715;SDS011;59568;52.128;5.434;2023-06-24T01:01:58;7.80;;;3.47;;
71715;SDS011;59568;52.128;5.434;2023-06-24T01:04:28;5.78;;;4.25;;
71715;SDS011;59568;52.128;5.434;2023-06-24T01:06:55;7.32;;;4.10;;
71715;SDS011;59568;52.128;5.434;2023-06-24T01:09:23;5.65;;;3.65;;
71715;SDS011;59568;52.128;5.434;2023-06-24T01:11:52;6.33;;;4.20;;
71715;SDS011;59568;52.128;5.434;2023-06-24T01:14:18;6.13;;;3.95;;
71715;SDS011;59568;52.128;5.434;2023-06-24T01:16:52;7.20;;;4.05;;
71715;SDS011;59568;52.128;5.434;2023-06-24T01:36:42;6.15;;;3.80;;
71715;SDS011;59568;52.128;5.434;2023-06-24T01:39:14;7.20;;;4.20;;
71715;SDS011;59568;52.128;5.434;2023-06-24T01:41:47;6.72;;;4.20;;
71715;SDS011;59568;52.128;5.434;2023-06-24T01:44:20;7.78;;;4.55;;
71715;SDS011;59568;52.128;5.434;2023-06-24T01:46:48;6.25;;;4.28;;
71715;SDS011;59568;52.128;5.434;2023-06-24T01:49:21;7.53;;;4.32;;
71715;SDS011;59568;52.128;5.434;2023-06-24T01:51:50;7.93;;;4.23;;
71715;SDS011;59568;52.128;5.434;2023-06-24T01:54:17;7.05;;;4.68;;
71715;SDS011;59568;52.128;5.434;2023-06-24T01:56:47;8.10;;;4.45;;
71715;SDS011;59568;52.128;5.434;2023-06-24T01:59:16;6.95;;;4.32;;
71715;SDS011;59568;52.128;5.434;2023-06-24T02:01:45;7.82;;;4.40;;
71715;SDS011;59568;52.128;5.434;2023-06-24T02:04:12;6.17;;;3.80;;
71715;SDS011;59568;52.128;5.434;2023-06-24T02:06:41;6.10;;;4.07;;
71715;SDS011;59568;52.128;5.434;2023-06-24T02:09:09;7.38;;;4.18;;
71715;SDS011;59568;52.128;5.434;2023-06-24T02:11:37;7.03;;;4.45;;
71715;SDS011;59568;52.128;5.434;2023-06-24T02:14:06;8.20;;;4.47;;
71715;SDS011;59568;52.128;5.434;2023-06-24T02:16:34;8.33;;;4.60;;
71715;SDS011;59568;52.128;5.434;2023-06-24T02:19:02;6.82;;;3.92;;
71715;SDS011;59568;52.128;5.434;2023-06-24T02:21:33;7.13;;;4.10;;
71715;SDS011;59568;52.128;5.434;2023-06-24T02:24:01;7.30;;;4.47;;
71715;SDS011;59568;52.128;5.434;2023-06-24T02:26:29;8.40;;;4.63;;
71715;SDS011;59568;52.128;5.434;2023-06-24T02:28:56;7.83;;;4.57;;
71715;SDS011;59568;52.128;5.434;2023-06-24T02:31:24;5.78;;;3.70;;
71715;SDS011;59568;52.128;5.434;2023-06-24T02:33:51;7.95;;;4.25;;
71715;SDS011;59568;52.128;5.434;2023-06-24T02:36:18;8.23;;;4.80;;
71715;SDS011;59568;52.128;5.434;2023-06-24T02:38:45;6.70;;;4.35;;
71715;SDS011;59568;52.128;5.434;2023-06-24T02:41:12;6.30;;;4.37;;
71715;SDS011;59568;52.128;5.434;2023-06-24T02:43:39;6.97;;;4.13;;
71715;SDS011;59568;52.128;5.434;2023-06-24T02:46:05;7.88;;;4.80;;
71715;SDS011;59568;52.128;5.434;2023-06-24T02:48:34;6.50;;;4.38;;
71715;SDS011;59568;52.128;5.434;2023-06-24T02:51:04;9.77;;;4.95;;
71715;SDS011;59568;52.128;5.434;2023-06-24T02:53:33;7.40;;;4.60;;
71715;SDS011;59568;52.128;5.434;2023-06-24T02:56:02;7.07;;;4.30;;
71715;SDS011;59568;52.128;5.434;2023-06-24T02:58:30;8.82;;;4.78;;
71715;SDS011;59568;52.128;5.434;2023-06-24T03:00:59;8.63;;;4.60;;
71715;SDS011;59568;52.128;5.434;2023-06-24T03:03:27;7.03;;;4.47;;
71715;SDS011;59568;52.128;5.434;2023-06-24T03:05:54;6.63;;;4.43;;
71715;SDS011;59568;52.128;5.434;2023-06-24T03:08:23;7.30;;;4.38;;
71715;SDS011;59568;52.128;5.434;2023-06-24T03:10:54;7.03;;;4.30;;
71715;SDS011;59568;52.128;5.434;2023-06-24T03:13:22;6.78;;;4.22;;
71715;SDS011;59568;52.128;5.434;2023-06-24T03:15:49;5.70;;;3.92;;
71715;SDS011;59568;52.128;5.434;2023-06-24T03:18:17;6.47;;;3.80;;
71715;SDS011;59568;52.128;5.434;2023-06-24T03:20:44;6.88;;;4.30;;
71715;SDS011;59568;52.128;5.434;2023-06-24T03:23:12;8.55;;;4.55;;
71715;SDS011;59568;52.128;5.434;2023-06-24T03:25:39;6.03;;;3.80;;
71715;SDS011;59568;52.128;5.434;2023-06-24T03:28:05;6.07;;;3.50;;
71715;SDS011;59568;52.128;5.434;2023-06-24T03:30:35;7.47;;;3.70;;
71715;SDS011;59568;52.128;5.434;2023-06-24T03:33:02;8.32;;;3.97;;
71715;SDS011;59568;52.128;5.434;2023-06-24T03:35:29;8.07;;;4.07;;
71715;SDS011;59568;52.128;5.434;2023-06-24T03:37:59;8.07;;;4.32;;
71715;SDS011;59568;52.128;5.434;2023-06-24T03:40:26;6.72;;;3.72;;
71715;SDS011;59568;52.128;5.434;2023-06-24T03:42:53;7.27;;;4.23;;
71715;SDS011;59568;52.128;5.434;2023-06-24T03:45:20;9.35;;;4.20;;
71715;SDS011;59568;52.128;5.434;2023-06-24T03:47:47;6.90;;;4.05;;
71715;SDS011;59568;52.128;5.434;2023-06-24T03:50:14;7.32;;;3.95;;
71715;SDS011;59568;52.128;5.434;2023-06-24T03:52:41;7.20;;;4.57;;
71715;SDS011;59568;52.128;5.434;2023-06-24T03:55:08;6.13;;;3.43;;
71715;SDS011;59568;52.128;5.434;2023-06-24T03:57:35;5.85;;;3.58;;
71715;SDS011;59568;52.128;5.434;2023-06-24T04:00:02;8.00;;;4.15;;
71715;SDS011;59568;52.128;5.434;2023-06-24T04:02:47;6.35;;;4.15;;
71715;SDS011;59568;52.128;5.434;2023-06-24T04:05:15;6.03;;;4.07;;
71715;SDS011;59568;52.128;5.434;2023-06-24T04:07:42;5.93;;;3.90;;
71715;SDS011;59568;52.128;5.434;2023-06-24T04:10:13;7.10;;;3.55;;
71715;SDS011;59568;52.128;5.434;2023-06-24T04:12:40;5.65;;;3.70;;
71715;SDS011;59568;52.128;5.434;2023-06-24T04:15:07;5.88;;;3.80;;
71715;SDS011;59568;52.128;5.434;2023-06-24T04:17:35;6.13;;;3.85;;
71715;SDS011;59568;52.128;5.434;2023-06-24T04:20:02;6.93;;;3.77;;
71715;SDS011;59568;52.128;5.434;2023-06-24T04:22:32;5.22;;;3.63;;
71715;SDS011;59568;52.128;5.434;2023-06-24T04:24:59;6.97;;;3.83;;
71715;SDS011;59568;52.128;5.434;2023-06-24T04:27:26;6.38;;;3.60;;
71715;SDS011;59568;52.128;5.434;2023-06-24T04:29:53;7.25;;;4.32;;
71715;SDS011;59568;52.128;5.434;2023-06-24T04:32:20;5.73;;;3.97;;
71715;SDS011;59568;52.128;5.434;2023-06-24T04:34:47;8.30;;;4.30;;
71715;SDS011;59568;52.128;5.434;2023-06-24T04:37:14;6.22;;;3.92;;
71715;SDS011;59568;52.128;5.434;2023-06-24T04:39:41;6.70;;;4.22;;
71715;SDS011;59568;52.128;5.434;2023-06-24T04:42:09;7.57;;;4.35;;
71715;SDS011;59568;52.128;5.434;2023-06-24T04:44:36;7.10;;;4.30;;
71715;SDS011;59568;52.128;5.434;2023-06-24T04:47:04;7.75;;;4.68;;
71715;SDS011;59568;52.128;5.434;2023-06-24T04:49:30;7.15;;;4.25;;
71715;SDS011;59568;52.128;5.434;2023-06-24T04:51:59;6.50;;;4.03;;
71715;SDS011;59568;52.128;5.434;2023-06-24T04:54:27;5.70;;;4.00;;
71715;SDS011;59568;52.128;5.434;2023-06-24T04:56:54;7.63;;;4.83;;
71715;SDS011;59568;52.128;5.434;2023-06-24T04:59:22;5.95;;;4.72;;
71715;SDS011;59568;52.128;5.434;2023-06-24T05:01:48;6.75;;;4.80;;
71715;SDS011;59568;52.128;5.434;2023-06-24T05:04:15;9.63;;;4.78;;
71715;SDS011;59568;52.128;5.434;2023-06-24T05:06:42;6.82;;;4.30;;
71715;SDS011;59568;52.128;5.434;2023-06-24T05:09:09;6.20;;;3.90;;
71715;SDS011;59568;52.128;5.434;2023-06-24T05:11:40;6.65;;;4.03;;
71715;SDS011;59568;52.128;5.434;2023-06-24T05:14:07;7.45;;;4.78;;
71715;SDS011;59568;52.128;5.434;2023-06-24T05:16:34;6.65;;;4.05;;
71715;SDS011;59568;52.128;5.434;2023-06-24T05:19:01;5.57;;;3.33;;
71715;SDS011;59568;52.128;5.434;2023-06-24T05:21:28;10.20;;;4.20;;
71715;SDS011;59568;52.128;5.434;2023-06-24T05:23:55;7.43;;;4.00;;
71715;SDS011;59568;52.128;5.434;2023-06-24T05:26:22;7.63;;;3.67;;
71715;SDS011;59568;52.128;5.434;2023-06-24T05:28:49;6.63;;;3.63;;
71715;SDS011;59568;52.128;5.434;2023-06-24T05:31:15;5.63;;;3.53;;
71715;SDS011;59568;52.128;5.434;2023-06-24T05:33:42;4.50;;;3.03;;
71715;SDS011;59568;52.128;5.434;2023-06-24T05:36:09;6.55;;;3.63;;
71715;SDS011;59568;52.128;5.434;2023-06-24T05:38:36;7.00;;;3.92;;
71715;SDS011;59568;52.128;5.434;2023-06-24T05:41:03;5.82;;;3.60;;
71715;SDS011;59568;52.128;5.434;2023-06-24T05:43:30;6.45;;;3.75;;
71715;SDS011;59568;52.128;5.434;2023-06-24T05:45:57;8.30;;;3.23;;
71715;SDS011;59568;52.128;5.434;2023-06-24T05:48:23;5.72;;;3.55;;
71715;SDS011;59568;52.128;5.434;2023-06-24T05:50:50;7.85;;;3.20;;
71715;SDS011;59568;52.128;5.434;2023-06-24T05:53:17;6.03;;;3.25;;
71715;SDS011;59568;52.128;5.434;2023-06-24T05:55:44;5.32;;;3.05;;
71715;SDS011;59568;52.128;5.434;2023-06-24T05:58:11;4.40;;;2.40;;
71715;SDS011;59568;52.128;5.434;2023-06-24T06:00:38;7.20;;;3.25;;
71715;SDS011;59568;52.128;5.434;2023-06-24T06:03:05;7.55;;;2.97;;
71715;SDS011;59568;52.128;5.434;2023-06-24T06:05:32;4.97;;;2.75;;
71715;SDS011;59568;52.128;5.434;2023-06-24T06:07:59;5.07;;;2.70;;
71715;SDS011;59568;52.128;5.434;2023-06-24T06:10:26;5.07;;;2.60;;
71715;SDS011;59568;52.128;5.434;2023-06-24T06:12:53;4.20;;;2.13;;
71715;SDS011;59568;52.128;5.434;2023-06-24T06:15:20;3.95;;;2.40;;
71715;SDS011;59568;52.128;5.434;2023-06-24T06:17:47;3.00;;;1.67;;
71715;SDS011;59568;52.128;5.434;2023-06-24T06:20:14;3.90;;;2.00;;
71715;SDS011;59568;52.128;5.434;2023-06-24T06:22:41;4.27;;;1.67;;
71715;SDS011;59568;52.128;5.434;2023-06-24T06:25:07;4.43;;;2.10;;
71715;SDS011;59568;52.128;5.434;2023-06-24T06:27:34;3.95;;;2.30;;
71715;SDS011;59568;52.128;5.434;2023-06-24T06:30:02;4.45;;;2.10;;
71715;SDS011;59568;52.128;5.434;2023-06-24T06:32:30;2.63;;;1.73;;
71715;SDS011;59568;52.128;5.434;2023-06-24T06:34:58;4.50;;;1.77;;
71715;SDS011;59568;52.128;5.434;2023-06-24T06:37:25;5.05;;;1.88;;
71715;SDS011;59568;52.128;5.434;2023-06-24T06:39:51;3.85;;;1.85;;
71715;SDS011;59568;52.128;5.434;2023-06-24T06:42:19;3.47;;;1.48;;
71715;SDS011;59568;52.128;5.434;2023-06-24T06:44:45;3.05;;;1.50;;
71715;SDS011;59568;52.128;5.434;2023-06-24T06:47:12;5.03;;;1.70;;
71715;SDS011;59568;52.128;5.434;2023-06-24T06:49:39;4.60;;;2.00;;
71715;SDS011;59568;52.128;5.434;2023-06-24T06:52:06;4.60;;;1.70;;
71715;SDS011;59568;52.128;5.434;2023-06-24T06:54:34;3.92;;;1.42;;
71715;SDS011;59568;52.128;5.434;2023-06-24T06:57:01;4.30;;;1.73;;
71715;SDS011;59568;52.128;5.434;2023-06-24T06:59:31;5.63;;;1.77;;
71715;SDS011;59568;52.128;5.434;2023-06-24T07:01:58;3.33;;;1.60;;
71715;SDS011;59568;52.128;5.434;2023-06-24T07:04:25;2.67;;;1.38;;
71715;SDS011;59568;52.128;5.434;2023-06-24T07:06:52;2.83;;;1.40;;
71715;SDS011;59568;52.128;5.434;2023-06-24T07:09:19;3.15;;;1.42;;
71715;SDS011;59568;52.128;5.434;2023-06-24T07:11:46;3.63;;;1.73;;
71715;SDS011;59568;52.128;5.434;2023-06-24T07:14:13;2.83;;;1.40;;
71715;SDS011;59568;52.128;5.434;2023-06-24T07:16:40;2.13;;;1.30;;
71715;SDS011;59568;52.128;5.434;2023-06-24T07:19:07;3.10;;;1.30;;
71715;SDS011;59568;52.128;5.434;2023-06-24T07:21:34;4.82;;;1.95;;
71715;SDS011;59568;52.128;5.434;2023-06-24T07:24:01;3.07;;;1.40;;
71715;SDS011;59568;52.128;5.434;2023-06-24T07:26:28;4.18;;;1.40;;
71715;SDS011;59568;52.128;5.434;2023-06-24T07:28:57;2.80;;;1.40;;
71715;SDS011;59568;52.128;5.434;2023-06-24T07:31:35;4.20;;;1.35;;
71715;SDS011;59568;52.128;5.434;2023-06-24T07:34:04;3.28;;;1.92;;
71715;SDS011;59568;52.128;5.434;2023-06-24T07:36:31;4.63;;;1.40;;
71715;SDS011;59568;52.128;5.434;2023-06-24T07:38:58;4.15;;;1.70;;
71715;SDS011;59568;52.128;5.434;2023-06-24T07:41:25;3.10;;;1.30;;
71715;SDS011;59568;52.128;5.434;2023-06-24T07:43:52;3.10;;;1.40;;
71715;SDS011;59568;52.128;5.434;2023-06-24T07:46:19;3.72;;;1.60;;
71715;SDS011;59568;52.128;5.434;2023-06-24T07:48:46;2.70;;;1.50;;
71715;SDS011;59568;52.128;5.434;2023-06-24T07:51:13;3.42;;;1.30;;
71715;SDS011;59568;52.128;5.434;2023-06-24T07:53:40;4.00;;;1.60;;
71715;SDS011;59568;52.128;5.434;2023-06-24T07:56:07;3.88;;;1.17;;
71715;SDS011;59568;52.128;5.434;2023-06-24T07:58:35;3.58;;;1.10;;
71715;SDS011;59568;52.128;5.434;2023-06-24T08:01:04;3.93;;;1.30;;
71715;SDS011;59568;52.128;5.434;2023-06-24T08:03:33;2.97;;;1.20;;
71715;SDS011;59568;52.128;5.434;2023-06-24T08:06:00;3.20;;;1.13;;
71715;SDS011;59568;52.128;5.434;2023-06-24T08:08:27;3.05;;;1.13;;
71715;SDS011;59568;52.128;5.434;2023-06-24T08:10:54;2.80;;;1.40;;
71715;SDS011;59568;52.128;5.434;2023-06-24T08:13:21;2.70;;;1.30;;
71715;SDS011;59568;52.128;5.434;2023-06-24T08:15:48;3.72;;;1.85;;
71715;SDS011;59568;52.128;5.434;2023-06-24T08:18:15;4.40;;;1.17;;
71715;SDS011;59568;52.128;5.434;2023-06-24T08:20:42;3.58;;;1.33;;
71715;SDS011;59568;52.128;5.434;2023-06-24T08:23:09;5.35;;;2.45;;
71715;SDS011;59568;52.128;5.434;2023-06-24T08:25:36;2.63;;;1.60;;
71715;SDS011;59568;52.128;5.434;2023-06-24T08:28:03;3.40;;;1.40;;
71715;SDS011;59568;52.128;5.434;2023-06-24T08:30:30;2.85;;;1.60;;
71715;SDS011;59568;52.128;5.434;2023-06-24T08:32:57;4.50;;;1.20;;
71715;SDS011;59568;52.128;5.434;2023-06-24T08:35:24;6.03;;;1.27;;
71715;SDS011;59568;52.128;5.434;2023-06-24T08:37:51;3.40;;;1.33;;
71715;SDS011;59568;52.128;5.434;2023-06-24T08:40:18;3.13;;;1.60;;
71715;SDS011;59568;52.128;5.434;2023-06-24T08:42:46;3.65;;;1.58;;
71715;SDS011;59568;52.128;5.434;2023-06-24T08:45:13;4.80;;;1.30;;
71715;SDS011;59568;52.128;5.434;2023-06-24T08:47:40;3.15;;;1.55;;
71715;SDS011;59568;52.128;5.434;2023-06-24T08:50:08;4.53;;;1.43;;
71715;SDS011;59568;52.128;5.434;2023-06-24T08:52:38;2.45;;;1.10;;
71715;SDS011;59568;52.128;5.434;2023-06-24T08:55:10;3.47;;;1.27;;
71715;SDS011;59568;52.128;5.434;2023-06-24T08:57:40;3.35;;;1.10;;
71715;SDS011;59568;52.128;5.434;2023-06-24T09:00:07;2.90;;;1.55;;
71715;SDS011;59568;52.128;5.434;2023-06-24T09:02:38;3.53;;;1.20;;
71715;SDS011;59568;52.128;5.434;2023-06-24T09:05:06;4.78;;;1.40;;
71715;SDS011;59568;52.128;5.434;2023-06-24T09:07:34;4.40;;;1.35;;
71715;SDS011;59568;52.128;5.434;2023-06-24T09:10:01;2.88;;;1.48;;
71715;SDS011;59568;52.128;5.434;2023-06-24T09:12:28;4.13;;;1.45;;
71715;SDS011;59568;52.128;5.434;2023-06-24T09:14:59;2.17;;;0.93;;
71715;SDS011;59568;52.128;5.434;2023-06-24T09:17:26;3.78;;;1.83;;
71715;SDS011;59568;52.128;5.434;2023-06-24T09:20:06;2.17;;;1.20;;
71715;SDS011;59568;52.128;5.434;2023-06-24T09:22:36;2.45;;;1.10;;
71715;SDS011;59568;52.128;5.434;2023-06-24T09:25:07;3.42;;;1.40;;
71715;SDS011;59568;52.128;5.434;2023-06-24T09:27:34;4.23;;;1.30;;
71715;SDS011;59568;52.128;5.434;2023-06-24T09:30:04;4.72;;;1.45;;
71715;SDS011;59568;52.128;5.434;2023-06-24T09:32:49;3.10;;;1.58;;
71715;SDS011;59568;52.128;5.434;2023-06-24T09:35:20;2.88;;;1.75;;
71715;SDS011;59568;52.128;5.434;2023-06-24T09:37:57;2.75;;;1.30;;
71715;SDS011;59568;52.128;5.434;2023-06-24T09:40:26;6.07;;;1.90;;
71715;SDS011;59568;52.128;5.434;2023-06-24T09:42:56;4.63;;;1.40;;
71715;SDS011;59568;52.128;5.434;2023-06-24T09:45:27;3.00;;;1.00;;
71715;SDS011;59568;52.128;5.434;2023-06-24T09:47:55;3.90;;;1.35;;
71715;SDS011;59568;52.128;5.434;2023-06-24T09:50:27;3.17;;;1.40;;
71715;SDS011;59568;52.128;5.434;2023-06-24T09:52:54;2.77;;;1.23;;
71715;SDS011;59568;52.128;5.434;2023-06-24T09:55:24;3.15;;;1.60;;
71715;SDS011;59568;52.128;5.434;2023-06-24T09:57:52;2.42;;;1.50;;
71715;SDS011;59568;52.128;5.434;2023-06-24T10:00:20;4.50;;;1.30;;
71715;SDS011;59568;52.128;5.434;2023-06-24T10:02:48;2.55;;;1.10;;
71715;SDS011;59568;52.128;5.434;2023-06-24T10:05:16;3.37;;;1.30;;
71715;SDS011;59568;52.128;5.434;2023-06-24T10:07:43;3.40;;;1.45;;
71715;SDS011;59568;52.128;5.434;2023-06-24T10:10:11;5.78;;;2.00;;
71715;SDS011;59568;52.128;5.434;2023-06-24T10:12:39;2.90;;;1.42;;
71715;SDS011;59568;52.128;5.434;2023-06-24T10:15:07;4.55;;;1.70;;
71715;SDS011;59568;52.128;5.434;2023-06-24T10:17:34;3.03;;;1.60;;
71715;SDS011;59568;52.128;5.434;2023-06-24T10:20:04;4.70;;;1.58;;
71715;SDS011;59568;52.128;5.434;2023-06-24T10:22:35;3.60;;;1.50;;
71715;SDS011;59568;52.128;5.434;2023-06-24T10:25:05;2.63;;;1.30;;
71715;SDS011;59568;52.128;5.434;2023-06-24T10:27:40;4.50;;;1.70;;
71715;SDS011;59568;52.128;5.434;2023-06-24T10:30:16;3.57;;;1.67;;
71715;SDS011;59568;52.128;5.434;2023-06-24T10:32:45;2.90;;;1.40;;
71715;SDS011;59568;52.128;5.434;2023-06-24T10:35:26;4.07;;;1.70;;
71715;SDS011;59568;52.128;5.434;2023-06-24T10:37:57;3.70;;;1.67;;
71715;SDS011;59568;52.128;5.434;2023-06-24T10:40:37;3.33;;;1.85;;
71715;SDS011;59568;52.128;5.434;2023-06-24T10:45:54;3.20;;;1.30;;
71715;SDS011;59568;52.128;5.434;2023-06-24T10:48:22;4.50;;;1.88;;
71715;SDS011;59568;52.128;5.434;2023-06-24T10:50:49;3.70;;;1.65;;
71715;SDS011;59568;52.128;5.434;2023-06-24T10:53:17;3.38;;;1.80;;
71715;SDS011;59568;52.128;5.434;2023-06-24T10:55:47;3.50;;;1.53;;
71715;SDS011;59568;52.128;5.434;2023-06-24T10:58:14;4.47;;;2.42;;
71715;SDS011;59568;52.128;5.434;2023-06-24T11:00:42;3.75;;;1.65;;
71715;SDS011;59568;52.128;5.434;2023-06-24T11:03:14;3.75;;;1.98;;
71715;SDS011;59568;52.128;5.434;2023-06-24T11:05:43;4.53;;;1.83;;
71715;SDS011;59568;52.128;5.434;2023-06-24T11:08:12;6.20;;;2.00;;
71715;SDS011;59568;52.128;5.434;2023-06-24T11:10:45;2.95;;;1.55;;
71715;SDS011;59568;52.128;5.434;2023-06-24T11:13:13;3.10;;;1.70;;
71715;SDS011;59568;52.128;5.434;2023-06-24T11:15:41;5.35;;;1.80;;
71715;SDS011;59568;52.128;5.434;2023-06-24T11:18:09;4.22;;;2.40;;
71715;SDS011;59568;52.128;5.434;2023-06-24T11:20:39;3.50;;;1.63;;
71715;SDS011;59568;52.128;5.434;2023-06-24T11:23:10;4.60;;;1.92;;
71715;SDS011;59568;52.128;5.434;2023-06-24T11:25:41;3.78;;;1.90;;
71715;SDS011;59568;52.128;5.434;2023-06-24T11:28:13;3.20;;;1.75;;
71715;SDS011;59568;52.128;5.434;2023-06-24T11:30:41;4.57;;;2.10;;
71715;SDS011;59568;52.128;5.434;2023-06-24T11:33:08;3.50;;;1.70;;
71715;SDS011;59568;52.128;5.434;2023-06-24T11:35:35;3.95;;;2.03;;
71715;SDS011;59568;52.128;5.434;2023-06-24T11:38:03;3.90;;;1.90;;
71715;SDS011;59568;52.128;5.434;2023-06-24T11:40:30;2.90;;;1.70;;
71715;SDS011;59568;52.128;5.434;2023-06-24T11:43:00;2.88;;;1.80;;
71715;SDS011;59568;52.128;5.434;2023-06-24T11:45:28;4.63;;;2.60;;
71715;SDS011;59568;52.128;5.434;2023-06-24T11:48:01;4.63;;;2.13;;
71715;SDS011;59568;52.128;5.434;2023-06-24T11:50:31;3.88;;;1.83;;
71715;SDS011;59568;52.128;5.434;2023-06-24T11:52:58;3.70;;;2.55;;
71715;SDS011;59568;52.128;5.434;2023-06-24T11:55:26;6.18;;;2.05;;
71715;SDS011;59568;52.128;5.434;2023-06-24T11:57:57;3.93;;;1.97;;
71715;SDS011;59568;52.128;5.434;2023-06-24T12:02:55;4.22;;;2.13;;
71715;SDS011;59568;52.128;5.434;2023-06-24T12:05:31;4.40;;;1.75;;
71715;SDS011;59568;52.128;5.434;2023-06-24T12:08:05;5.78;;;2.58;;
71715;SDS011;59568;52.128;5.434;2023-06-24T12:10:34;5.77;;;2.17;;
71715;SDS011;59568;52.128;5.434;2023-06-24T12:13:02;5.55;;;2.50;;
71715;SDS011;59568;52.128;5.434;2023-06-24T12:15:32;5.10;;;2.60;;
71715;SDS011;59568;52.128;5.434;2023-06-24T12:17:59;4.28;;;2.30;;
71715;SDS011;59568;52.128;5.434;2023-06-24T12:20:29;4.13;;;2.20;;
71715;SDS011;59568;52.128;5.434;2023-06-24T12:23:01;3.80;;;2.07;;
71715;SDS011;59568;52.128;5.434;2023-06-24T12:25:32;6.00;;;2.00;;
71715;SDS011;59568;52.128;5.434;2023-06-24T12:28:00;4.07;;;1.98;;
71715;SDS011;59568;52.128;5.434;2023-06-24T12:30:27;5.07;;;2.55;;
71715;SDS011;59568;52.128;5.434;2023-06-24T12:32:55;4.38;;;2.10;;
71715;SDS011;59568;52.128;5.434;2023-06-24T12:35:22;5.33;;;2.10;;
71715;SDS011;59568;52.128;5.434;2023-06-24T12:37:52;3.67;;;1.65;;
71715;SDS011;59568;52.128;5.434;2023-06-24T12:40:19;4.88;;;1.98;;
71715;SDS011;59568;52.128;5.434;2023-06-24T12:42:46;3.05;;;2.00;;
71715;SDS011;59568;52.128;5.434;2023-06-24T12:45:13;3.40;;;1.73;;
71715;SDS011;59568;52.128;5.434;2023-06-24T12:47:40;3.63;;;1.87;;
71715;SDS011;59568;52.128;5.434;2023-06-24T12:50:07;5.40;;;2.78;;
71715;SDS011;59568;52.128;5.434;2023-06-24T12:52:35;5.45;;;2.38;;
71715;SDS011;59568;52.128;5.434;2023-06-24T12:55:05;4.18;;;1.98;;
71715;SDS011;59568;52.128;5.434;2023-06-24T12:57:34;3.38;;;1.90;;
71715;SDS011;59568;52.128;5.434;2023-06-24T13:00:02;3.47;;;2.20;;
71715;SDS011;59568;52.128;5.434;2023-06-24T13:02:32;3.40;;;1.73;;
71715;SDS011;59568;52.128;5.434;2023-06-24T13:05:00;3.28;;;1.95;;
71715;SDS011;59568;52.128;5.434;2023-06-24T13:07:27;3.35;;;2.10;;
71715;SDS011;59568;52.128;5.434;2023-06-24T13:09:54;5.55;;;2.22;;
71715;SDS011;59568;52.128;5.434;2023-06-24T13:12:21;3.60;;;1.77;;
71715;SDS011;59568;52.128;5.434;2023-06-24T13:14:49;3.05;;;1.80;;
71715;SDS011;59568;52.128;5.434;2023-06-24T13:17:16;4.28;;;1.85;;
71715;SDS011;59568;52.128;5.434;2023-06-24T13:19:42;3.00;;;1.80;;
71715;SDS011;59568;52.128;5.434;2023-06-24T13:22:09;4.28;;;2.25;;
71715;SDS011;59568;52.128;5.434;2023-06-24T13:24:36;4.73;;;2.13;;
71715;SDS011;59568;52.128;5.434;2023-06-24T13:27:03;3.78;;;2.10;;
71715;SDS011;59568;52.128;5.434;2023-06-24T13:29:30;3.90;;;2.40;;
71715;SDS011;59568;52.128;5.434;2023-06-24T13:31:58;4.03;;;2.00;;
71715;SDS011;59568;52.128;5.434;2023-06-24T13:34:25;4.28;;;2.08;;
71715;SDS011;59568;52.128;5.434;2023-06-24T13:36:52;3.30;;;2.20;;
71715;SDS011;59568;52.128;5.434;2023-06-24T13:39:19;3.88;;;2.40;;
71715;SDS011;59568;52.128;5.434;2023-06-24T13:41:50;4.82;;;2.42;;
71715;SDS011;59568;52.128;5.434;2023-06-24T13:44:19;3.72;;;2.20;;
71715;SDS011;59568;52.128;5.434;2023-06-24T13:46:46;3.45;;;2.40;;
71715;SDS011;59568;52.128;5.434;2023-06-24T13:49:13;3.50;;;2.20;;
71715;SDS011;59568;52.128;5.434;2023-06-24T13:51:40;3.67;;;1.88;;
71715;SDS011;59568;52.128;5.434;2023-06-24T13:54:07;2.88;;;1.80;;
71715;SDS011;59568;52.128;5.434;2023-06-24T13:56:34;3.72;;;2.28;;
71715;SDS011;59568;52.128;5.434;2023-06-24T13:59:00;3.13;;;2.10;;
71715;SDS011;59568;52.128;5.434;2023-06-24T14:01:27;3.93;;;2.23;;
71715;SDS011;59568;52.128;5.434;2023-06-24T14:03:55;4.70;;;1.95;;
71715;SDS011;59568;52.128;5.434;2023-06-24T14:06:22;3.05;;;2.10;;
71715;SDS011;59568;52.128;5.434;2023-06-24T14:08:50;3.28;;;1.98;;
71715;SDS011;59568;52.128;5.434;2023-06-24T14:11:18;5.03;;;2.38;;
71715;SDS011;59568;52.128;5.434;2023-06-24T14:13:45;3.60;;;1.83;;
71715;SDS011;59568;52.128;5.434;2023-06-24T14:16:12;4.57;;;1.83;;
71715;SDS011;59568;52.128;5.434;2023-06-24T14:18:40;5.22;;;2.13;;
71715;SDS011;59568;52.128;5.434;2023-06-24T14:21:07;3.42;;;2.00;;
71715;SDS011;59568;52.128;5.434;2023-06-24T14:23:35;5.45;;;2.17;;
71715;SDS011;59568;52.128;5.434;2023-06-24T14:26:02;4.13;;;2.30;;
71715;SDS011;59568;52.128;5.434;2023-06-24T14:28:30;4.47;;;2.13;;
71715;SDS011;59568;52.128;5.434;2023-06-24T14:30:57;5.28;;;2.15;;
71715;SDS011;59568;52.128;5.434;2023-06-24T14:33:24;4.32;;;2.20;;
71715;SDS011;59568;52.128;5.434;2023-06-24T14:35:51;4.53;;;2.10;;
71715;SDS011;59568;52.128;5.434;2023-06-24T14:38:18;4.43;;;2.10;;
71715;SDS011;59568;52.128;5.434;2023-06-24T14:40:46;5.47;;;2.30;;
71715;SDS011;59568;52.128;5.434;2023-06-24T14:43:13;6.05;;;2.50;;
71715;SDS011;59568;52.128;5.434;2023-06-24T14:45:40;3.33;;;1.88;;
71715;SDS011;59568;52.128;5.434;2023-06-24T14:48:07;4.35;;;2.50;;
71715;SDS011;59568;52.128;5.434;2023-06-24T14:50:34;4.13;;;2.23;;
71715;SDS011;59568;52.128;5.434;2023-06-24T14:53:02;5.85;;;2.13;;
71715;SDS011;59568;52.128;5.434;2023-06-24T14:55:30;5.35;;;2.35;;
71715;SDS011;59568;52.128;5.434;2023-06-24T14:57:57;4.43;;;2.35;;
71715;SDS011;59568;52.128;5.434;2023-06-24T15:00:24;3.13;;;2.15;;
71715;SDS011;59568;52.128;5.434;2023-06-24T15:02:51;3.93;;;1.80;;
71715;SDS011;59568;52.128;5.434;2023-06-24T15:05:18;6.00;;;2.45;;
71715;SDS011;59568;52.128;5.434;2023-06-24T15:07:45;6.85;;;2.80;;
71715;SDS011;59568;52.128;5.434;2023-06-24T15:10:12;4.47;;;2.30;;
71715;SDS011;59568;52.128;5.434;2023-06-24T15:12:39;3.83;;;2.13;;
71715;SDS011;59568;52.128;5.434;2023-06-24T15:15:06;4.53;;;2.53;;